sensor_id;sensor_type;location;lat;lon;timestamp;P1;durP1;ratioP1;P2;durP2;ratioP2
26822;SDS011;14852;51.910;8.878;2024-01-10T00:02:00;12.00;;;5.63;;
26822;SDS011;14852;51.910;8.878;2024-01-10T00:04:26;11.80;;;6.18;;
26822;SDS011;14852;51.910;8.878;2024-01-10T00:06:51;10.25;;;5.95;;
26822;SDS011;14852;51.910;8.878;2024-01-10T00:09:17;12.73;;;6.32;;
26822;SDS011;14852;51.910;8.878;2024-01-10T00:11:43;9.63;;;5.18;;
26822;SDS011;14852;51.910;8.878;2024-01-10T00:14:09;10.13;;;5.43;;
26822;SDS011;14852;51.910;8.878;2024-01-10T00:16:35;11.32;;;6.28;;
26822;SDS011;14852;51.910;8.878;2024-01-10T00:19:01;12.32;;;6.18;;
26822;SDS011;14852;51.910;8.878;2024-01-10T00:21:27;9.15;;;5.95;;
26822;SDS011;14852;51.910;8.878;2024-01-10T00:23:53;8.93;;;5.38;;
26822;SDS011;14852;51.910;8.878;2024-01-10T00:26:19;11.70;;;5.60;;
26822;SDS011;14852;51.910;8.878;2024-01-10T00:28:45;9.68;;;5.45;;
26822;SDS011;14852;51.910;8.878;2024-01-10T00:31:11;11.85;;;6.00;;
26822;SDS011;14852;51.910;8.878;2024-01-10T00:33:40;8.35;;;5.32;;
26822;SDS011;14852;51.910;8.878;2024-01-10T00:36:06;10.48;;;5.95;;
26822;SDS011;14852;51.910;8.878;2024-01-10T00:38:32;12.05;;;5.57;;
26822;SDS011;14852;51.910;8.878;2024-01-10T00:40:58;12.13;;;6.03;;
26822;SDS011;14852;51.910;8.878;2024-01-10T00:43:24;10.68;;;6.53;;
26822;SDS011;14852;51.910;8.878;2024-01-10T00:45:50;10.23;;;5.88;;
26822;SDS011;14852;51.910;8.878;2024-01-10T00:48:16;8.57;;;5.65;;
26822;SDS011;14852;51.910;8.878;2024-01-10T00:50:44;9.27;;;5.82;;
26822;SDS011;14852;51.910;8.878;2024-01-10T00:53:10;10.50;;;5.57;;
26822;SDS011;14852;51.910;8.878;2024-01-10T00:55:36;9.30;;;5.78;;
26822;SDS011;14852;51.910;8.878;2024-01-10T00:58:02;9.38;;;5.78;;
26822;SDS011;14852;51.910;8.878;2024-01-10T01:00:28;9.57;;;5.32;;
26822;SDS011;14852;51.910;8.878;2024-01-10T01:02:53;11.40;;;5.68;;
26822;SDS011;14852;51.910;8.878;2024-01-10T01:05:20;10.63;;;5.63;;
26822;SDS011;14852;51.910;8.878;2024-01-10T01:07:45;7.63;;;5.63;;
26822;SDS011;14852;51.910;8.878;2024-01-10T01:10:11;10.35;;;6.53;;
26822;SDS011;14852;51.910;8.878;2024-01-10T01:12:37;10.45;;;6.15;;
26822;SDS011;14852;51.910;8.878;2024-01-10T01:15:04;10.43;;;5.60;;
26822;SDS011;14852;51.910;8.878;2024-01-10T01:17:31;8.70;;;5.55;;
26822;SDS011;14852;51.910;8.878;2024-01-10T01:19:56;12.55;;;5.28;;
26822;SDS011;14852;51.910;8.878;2024-01-10T01:22:22;11.73;;;6.07;;
26822;SDS011;14852;51.910;8.878;2024-01-10T01:24:48;12.40;;;6.13;;
26822;SDS011;14852;51.910;8.878;2024-01-10T01:27:14;13.98;;;6.28;;
26822;SDS011;14852;51.910;8.878;2024-01-10T01:29:39;10.80;;;6.15;;
26822;SDS011;14852;51.910;8.878;2024-01-10T01:32:05;11.48;;;6.13;;
26822;SDS011;14852;51.910;8.878;2024-01-10T01:34:31;10.43;;;5.07;;
26822;SDS011;14852;51.910;8.878;2024-01-10T01:36:57;10.23;;;5.85;;
26822;SDS011;14852;51.910;8.878;2024-01-10T01:39:22;12.20;;;7.22;;
26822;SDS011;14852;51.910;8.878;2024-01-10T01:41:48;12.93;;;7.50;;
26822;SDS011;14852;51.910;8.878;2024-01-10T01:44:14;7.55;;;4.80;;
26822;SDS011;14852;51.910;8.878;2024-01-10T01:46:39;14.05;;;9.18;;
26822;SDS011;14852;51.910;8.878;2024-01-10T01:49:06;11.73;;;6.15;;
26822;SDS011;14852;51.910;8.878;2024-01-10T01:51:32;11.52;;;6.40;;
26822;SDS011;14852;51.910;8.878;2024-01-10T01:54:01;11.88;;;6.72;;
26822;SDS011;14852;51.910;8.878;2024-01-10T01:56:32;12.07;;;6.97;;
26822;SDS011;14852;51.910;8.878;2024-01-10T01:58:58;11.15;;;6.38;;
26822;SDS011;14852;51.910;8.878;2024-01-10T02:01:24;9.77;;;6.38;;
26822;SDS011;14852;51.910;8.878;2024-01-10T02:03:49;9.77;;;6.82;;
26822;SDS011;14852;51.910;8.878;2024-01-10T02:06:15;11.68;;;6.30;;
26822;SDS011;14852;51.910;8.878;2024-01-10T02:08:41;16.35;;;6.30;;
26822;SDS011;14852;51.910;8.878;2024-01-10T02:11:07;12.35;;;6.78;;
26822;SDS011;14852;51.910;8.878;2024-01-10T02:13:33;11.48;;;5.63;;
26822;SDS011;14852;51.910;8.878;2024-01-10T02:15:59;13.82;;;6.80;;
26822;SDS011;14852;51.910;8.878;2024-01-10T02:18:25;15.20;;;6.68;;
26822;SDS011;14852;51.910;8.878;2024-01-10T02:20:51;11.52;;;6.55;;
26822;SDS011;14852;51.910;8.878;2024-01-10T02:23:17;13.02;;;6.85;;
26822;SDS011;14852;51.910;8.878;2024-01-10T02:25:43;14.65;;;7.60;;
26822;SDS011;14852;51.910;8.878;2024-01-10T02:28:09;14.93;;;8.25;;
26822;SDS011;14852;51.910;8.878;2024-01-10T02:30:35;13.77;;;7.18;;
26822;SDS011;14852;51.910;8.878;2024-01-10T02:33:02;12.90;;;7.43;;
26822;SDS011;14852;51.910;8.878;2024-01-10T02:35:27;9.55;;;6.53;;
26822;SDS011;14852;51.910;8.878;2024-01-10T02:37:54;15.48;;;8.18;;
26822;SDS011;14852;51.910;8.878;2024-01-10T02:40:20;14.70;;;8.13;;
26822;SDS011;14852;51.910;8.878;2024-01-10T02:42:46;11.23;;;6.35;;
26822;SDS011;14852;51.910;8.878;2024-01-10T02:45:12;13.27;;;8.15;;
26822;SDS011;14852;51.910;8.878;2024-01-10T02:47:38;11.30;;;6.95;;
26822;SDS011;14852;51.910;8.878;2024-01-10T02:50:04;15.93;;;7.68;;
26822;SDS011;14852;51.910;8.878;2024-01-10T02:52:31;16.40;;;7.90;;
26822;SDS011;14852;51.910;8.878;2024-01-10T02:54:57;15.80;;;8.32;;
26822;SDS011;14852;51.910;8.878;2024-01-10T02:57:23;12.45;;;7.07;;
26822;SDS011;14852;51.910;8.878;2024-01-10T02:59:48;15.27;;;8.23;;
26822;SDS011;14852;51.910;8.878;2024-01-10T03:05:37;18.52;;;9.57;;
26822;SDS011;14852;51.910;8.878;2024-01-10T03:08:02;13.85;;;7.43;;
26822;SDS011;14852;51.910;8.878;2024-01-10T03:10:38;16.27;;;10.45;;
26822;SDS011;14852;51.910;8.878;2024-01-10T03:13:03;25.08;;;10.15;;
26822;SDS011;14852;51.910;8.878;2024-01-10T03:15:29;13.73;;;7.25;;
26822;SDS011;14852;51.910;8.878;2024-01-10T03:17:56;16.70;;;8.52;;
26822;SDS011;14852;51.910;8.878;2024-01-10T03:20:21;16.52;;;7.65;;
26822;SDS011;14852;51.910;8.878;2024-01-10T03:22:47;12.93;;;6.82;;
26822;SDS011;14852;51.910;8.878;2024-01-10T03:25:13;14.15;;;8.45;;
26822;SDS011;14852;51.910;8.878;2024-01-10T03:27:39;15.02;;;8.50;;
26822;SDS011;14852;51.910;8.878;2024-01-10T03:30:04;17.85;;;8.65;;
26822;SDS011;14852;51.910;8.878;2024-01-10T03:32:31;12.20;;;7.40;;
26822;SDS011;14852;51.910;8.878;2024-01-10T03:34:57;13.05;;;7.93;;
26822;SDS011;14852;51.910;8.878;2024-01-10T03:37:23;16.30;;;8.40;;
26822;SDS011;14852;51.910;8.878;2024-01-10T03:39:48;14.77;;;8.75;;
26822;SDS011;14852;51.910;8.878;2024-01-10T03:42:14;16.73;;;7.90;;
26822;SDS011;14852;51.910;8.878;2024-01-10T03:44:40;12.48;;;7.50;;
26822;SDS011;14852;51.910;8.878;2024-01-10T03:47:06;14.98;;;9.05;;
26822;SDS011;14852;51.910;8.878;2024-01-10T03:49:32;17.85;;;9.38;;
26822;SDS011;14852;51.910;8.878;2024-01-10T03:51:58;14.32;;;8.43;;
26822;SDS011;14852;51.910;8.878;2024-01-10T03:54:23;16.48;;;10.07;;
26822;SDS011;14852;51.910;8.878;2024-01-10T03:56:49;16.05;;;9.57;;
26822;SDS011;14852;51.910;8.878;2024-01-10T03:59:15;14.93;;;8.10;;
26822;SDS011;14852;51.910;8.878;2024-01-10T04:01:41;17.23;;;9.10;;
26822;SDS011;14852;51.910;8.878;2024-01-10T04:04:06;12.20;;;7.28;;
26822;SDS011;14852;51.910;8.878;2024-01-10T04:06:32;13.82;;;7.53;;
26822;SDS011;14852;51.910;8.878;2024-01-10T04:08:58;14.75;;;7.20;;
26822;SDS011;14852;51.910;8.878;2024-01-10T04:12:08;17.48;;;10.15;;
26822;SDS011;14852;51.910;8.878;2024-01-10T04:14:52;11.18;;;6.38;;
26822;SDS011;14852;51.910;8.878;2024-01-10T04:17:26;11.95;;;6.88;;
26822;SDS011;14852;51.910;8.878;2024-01-10T04:23:26;13.50;;;7.60;;
26822;SDS011;14852;51.910;8.878;2024-01-10T04:29:40;12.77;;;7.88;;
26822;SDS011;14852;51.910;8.878;2024-01-10T04:32:34;12.02;;;7.45;;
26822;SDS011;14852;51.910;8.878;2024-01-10T04:35:47;10.35;;;6.47;;
26822;SDS011;14852;51.910;8.878;2024-01-10T04:38:46;15.35;;;8.13;;
26822;SDS011;14852;51.910;8.878;2024-01-10T04:41:38;12.80;;;7.13;;
26822;SDS011;14852;51.910;8.878;2024-01-10T04:45:03;13.20;;;7.68;;
26822;SDS011;14852;51.910;8.878;2024-01-10T04:54:30;14.47;;;8.30;;
26822;SDS011;14852;51.910;8.878;2024-01-10T04:57:36;10.43;;;6.25;;
26822;SDS011;14852;51.910;8.878;2024-01-10T05:00:53;11.05;;;6.10;;
26822;SDS011;14852;51.910;8.878;2024-01-10T05:07:45;13.30;;;8.48;;
26822;SDS011;14852;51.910;8.878;2024-01-10T05:10:26;10.93;;;6.93;;
26822;SDS011;14852;51.910;8.878;2024-01-10T05:13:20;15.50;;;8.10;;
26822;SDS011;14852;51.910;8.878;2024-01-10T05:16:12;12.07;;;6.75;;
26822;SDS011;14852;51.910;8.878;2024-01-10T05:19:13;15.27;;;8.25;;
26822;SDS011;14852;51.910;8.878;2024-01-10T05:22:09;15.77;;;7.55;;
26822;SDS011;14852;51.910;8.878;2024-01-10T05:24:45;16.13;;;6.80;;
26822;SDS011;14852;51.910;8.878;2024-01-10T05:27:59;13.95;;;6.78;;
26822;SDS011;14852;51.910;8.878;2024-01-10T05:31:00;14.18;;;6.93;;
26822;SDS011;14852;51.910;8.878;2024-01-10T05:34:22;11.73;;;7.25;;
26822;SDS011;14852;51.910;8.878;2024-01-10T05:37:08;14.95;;;9.23;;
26822;SDS011;14852;51.910;8.878;2024-01-10T05:40:44;16.42;;;9.18;;
26822;SDS011;14852;51.910;8.878;2024-01-10T05:47:47;17.08;;;7.50;;
26822;SDS011;14852;51.910;8.878;2024-01-10T05:50:42;18.10;;;9.32;;
26822;SDS011;14852;51.910;8.878;2024-01-10T06:00:56;15.68;;;7.40;;
26822;SDS011;14852;51.910;8.878;2024-01-10T06:04:51;13.57;;;8.27;;
26822;SDS011;14852;51.910;8.878;2024-01-10T06:11:08;17.40;;;8.55;;
26822;SDS011;14852;51.910;8.878;2024-01-10T06:13:35;10.65;;;7.10;;
26822;SDS011;14852;51.910;8.878;2024-01-10T06:16:02;12.85;;;7.63;;
26822;SDS011;14852;51.910;8.878;2024-01-10T06:18:29;11.13;;;6.63;;
26822;SDS011;14852;51.910;8.878;2024-01-10T06:20:55;17.58;;;7.60;;
26822;SDS011;14852;51.910;8.878;2024-01-10T06:23:20;15.50;;;7.47;;
26822;SDS011;14852;51.910;8.878;2024-01-10T06:25:46;14.10;;;8.07;;
26822;SDS011;14852;51.910;8.878;2024-01-10T06:28:12;14.02;;;7.47;;
26822;SDS011;14852;51.910;8.878;2024-01-10T06:30:37;11.30;;;6.68;;
26822;SDS011;14852;51.910;8.878;2024-01-10T06:33:03;11.65;;;7.40;;
26822;SDS011;14852;51.910;8.878;2024-01-10T06:35:31;13.75;;;7.95;;
26822;SDS011;14852;51.910;8.878;2024-01-10T06:37:57;15.32;;;8.10;;
26822;SDS011;14852;51.910;8.878;2024-01-10T06:40:23;15.93;;;8.98;;
26822;SDS011;14852;51.910;8.878;2024-01-10T06:42:49;13.27;;;7.57;;
26822;SDS011;14852;51.910;8.878;2024-01-10T06:45:14;17.98;;;8.88;;
26822;SDS011;14852;51.910;8.878;2024-01-10T06:47:40;19.30;;;9.10;;
26822;SDS011;14852;51.910;8.878;2024-01-10T06:50:06;15.80;;;7.95;;
26822;SDS011;14852;51.910;8.878;2024-01-10T06:52:33;17.10;;;9.15;;
26822;SDS011;14852;51.910;8.878;2024-01-10T06:54:59;19.63;;;10.13;;
26822;SDS011;14852;51.910;8.878;2024-01-10T06:57:25;21.52;;;11.07;;
26822;SDS011;14852;51.910;8.878;2024-01-10T06:59:52;20.65;;;10.75;;
26822;SDS011;14852;51.910;8.878;2024-01-10T07:02:18;19.20;;;10.63;;
26822;SDS011;14852;51.910;8.878;2024-01-10T07:04:44;20.58;;;10.73;;
26822;SDS011;14852;51.910;8.878;2024-01-10T07:07:13;22.27;;;11.00;;
26822;SDS011;14852;51.910;8.878;2024-01-10T07:09:39;18.90;;;10.43;;
26822;SDS011;14852;51.910;8.878;2024-01-10T07:12:06;20.30;;;10.77;;
26822;SDS011;14852;51.910;8.878;2024-01-10T07:14:32;16.92;;;10.88;;
26822;SDS011;14852;51.910;8.878;2024-01-10T07:16:58;24.38;;;11.18;;
26822;SDS011;14852;51.910;8.878;2024-01-10T07:19:24;22.40;;;11.88;;
26822;SDS011;14852;51.910;8.878;2024-01-10T07:21:50;36.83;;;12.40;;
26822;SDS011;14852;51.910;8.878;2024-01-10T07:24:16;19.35;;;11.63;;
26822;SDS011;14852;51.910;8.878;2024-01-10T07:26:41;18.13;;;11.38;;
26822;SDS011;14852;51.910;8.878;2024-01-10T07:29:07;17.77;;;10.82;;
26822;SDS011;14852;51.910;8.878;2024-01-10T07:31:34;21.67;;;11.13;;
26822;SDS011;14852;51.910;8.878;2024-01-10T07:34:00;20.33;;;10.90;;
26822;SDS011;14852;51.910;8.878;2024-01-10T07:36:26;20.60;;;10.75;;
26822;SDS011;14852;51.910;8.878;2024-01-10T07:38:52;22.75;;;11.95;;
26822;SDS011;14852;51.910;8.878;2024-01-10T07:41:18;18.67;;;10.38;;
26822;SDS011;14852;51.910;8.878;2024-01-10T07:43:44;19.48;;;11.52;;
26822;SDS011;14852;51.910;8.878;2024-01-10T07:46:10;21.70;;;11.98;;
26822;SDS011;14852;51.910;8.878;2024-01-10T07:48:36;21.85;;;10.18;;
26822;SDS011;14852;51.910;8.878;2024-01-10T07:51:02;19.67;;;10.55;;
26822;SDS011;14852;51.910;8.878;2024-01-10T07:53:29;22.27;;;11.35;;
26822;SDS011;14852;51.910;8.878;2024-01-10T07:55:55;19.48;;;10.55;;
26822;SDS011;14852;51.910;8.878;2024-01-10T07:58:21;23.23;;;11.75;;
26822;SDS011;14852;51.910;8.878;2024-01-10T08:00:47;19.13;;;12.07;;
26822;SDS011;14852;51.910;8.878;2024-01-10T08:03:13;18.55;;;11.00;;
26822;SDS011;14852;51.910;8.878;2024-01-10T08:05:39;21.55;;;11.32;;
26822;SDS011;14852;51.910;8.878;2024-01-10T08:08:05;24.58;;;12.60;;
26822;SDS011;14852;51.910;8.878;2024-01-10T08:10:30;19.25;;;11.98;;
26822;SDS011;14852;51.910;8.878;2024-01-10T08:12:57;22.00;;;11.43;;
26822;SDS011;14852;51.910;8.878;2024-01-10T08:15:23;24.40;;;13.10;;
26822;SDS011;14852;51.910;8.878;2024-01-10T08:17:49;21.40;;;12.50;;
26822;SDS011;14852;51.910;8.878;2024-01-10T08:20:15;22.38;;;11.27;;
26822;SDS011;14852;51.910;8.878;2024-01-10T08:22:46;27.55;;;13.43;;
26822;SDS011;14852;51.910;8.878;2024-01-10T08:25:12;19.42;;;11.27;;
26822;SDS011;14852;51.910;8.878;2024-01-10T08:27:40;19.60;;;11.88;;
26822;SDS011;14852;51.910;8.878;2024-01-10T08:30:06;19.40;;;10.48;;
26822;SDS011;14852;51.910;8.878;2024-01-10T08:32:35;23.70;;;12.23;;
26822;SDS011;14852;51.910;8.878;2024-01-10T08:35:01;23.60;;;12.00;;
26822;SDS011;14852;51.910;8.878;2024-01-10T08:37:32;18.30;;;11.25;;
26822;SDS011;14852;51.910;8.878;2024-01-10T08:39:58;21.83;;;13.38;;
26822;SDS011;14852;51.910;8.878;2024-01-10T08:42:25;22.45;;;13.35;;
26822;SDS011;14852;51.910;8.878;2024-01-10T08:44:51;23.30;;;13.20;;
26822;SDS011;14852;51.910;8.878;2024-01-10T08:47:18;23.10;;;13.50;;
26822;SDS011;14852;51.910;8.878;2024-01-10T08:49:44;24.35;;;14.13;;
26822;SDS011;14852;51.910;8.878;2024-01-10T08:52:10;26.02;;;16.83;;
26822;SDS011;14852;51.910;8.878;2024-01-10T08:54:36;25.60;;;13.70;;
26822;SDS011;14852;51.910;8.878;2024-01-10T08:57:02;27.70;;;12.48;;
26822;SDS011;14852;51.910;8.878;2024-01-10T08:59:28;23.55;;;13.32;;
26822;SDS011;14852;51.910;8.878;2024-01-10T09:01:54;27.55;;;13.90;;
26822;SDS011;14852;51.910;8.878;2024-01-10T09:04:20;24.10;;;13.52;;
26822;SDS011;14852;51.910;8.878;2024-01-10T09:06:46;20.40;;;11.98;;
26822;SDS011;14852;51.910;8.878;2024-01-10T09:09:12;22.95;;;13.38;;
26822;SDS011;14852;51.910;8.878;2024-01-10T09:11:38;21.75;;;12.70;;
26822;SDS011;14852;51.910;8.878;2024-01-10T09:14:04;17.85;;;11.18;;
26822;SDS011;14852;51.910;8.878;2024-01-10T09:16:32;20.95;;;11.75;;
26822;SDS011;14852;51.910;8.878;2024-01-10T09:18:59;21.42;;;10.65;;
26822;SDS011;14852;51.910;8.878;2024-01-10T09:21:25;21.50;;;10.43;;
26822;SDS011;14852;51.910;8.878;2024-01-10T09:23:51;14.60;;;9.73;;
26822;SDS011;14852;51.910;8.878;2024-01-10T09:26:18;18.80;;;10.40;;
26822;SDS011;14852;51.910;8.878;2024-01-10T09:28:44;15.57;;;10.10;;
26822;SDS011;14852;51.910;8.878;2024-01-10T09:31:10;16.60;;;9.20;;
26822;SDS011;14852;51.910;8.878;2024-01-10T09:33:35;22.48;;;10.63;;
26822;SDS011;14852;51.910;8.878;2024-01-10T09:36:01;17.08;;;10.88;;
26822;SDS011;14852;51.910;8.878;2024-01-10T09:38:28;20.55;;;11.07;;
26822;SDS011;14852;51.910;8.878;2024-01-10T09:40:56;17.60;;;10.23;;
26822;SDS011;14852;51.910;8.878;2024-01-10T09:43:29;20.00;;;10.88;;
26822;SDS011;14852;51.910;8.878;2024-01-10T09:45:55;19.15;;;11.30;;
26822;SDS011;14852;51.910;8.878;2024-01-10T09:48:25;25.08;;;11.77;;
26822;SDS011;14852;51.910;8.878;2024-01-10T09:50:51;23.30;;;11.90;;
26822;SDS011;14852;51.910;8.878;2024-01-10T09:53:24;18.77;;;10.50;;
26822;SDS011;14852;51.910;8.878;2024-01-10T09:55:56;18.65;;;10.57;;
26822;SDS011;14852;51.910;8.878;2024-01-10T09:58:24;21.50;;;11.50;;
26822;SDS011;14852;51.910;8.878;2024-01-10T10:00:51;20.55;;;12.07;;
26822;SDS011;14852;51.910;8.878;2024-01-10T10:03:19;18.58;;;11.07;;
26822;SDS011;14852;51.910;8.878;2024-01-10T10:05:44;23.42;;;12.98;;
26822;SDS011;14852;51.910;8.878;2024-01-10T10:08:14;21.20;;;11.70;;
26822;SDS011;14852;51.910;8.878;2024-01-10T10:10:40;21.98;;;11.60;;
26822;SDS011;14852;51.910;8.878;2024-01-10T10:13:11;18.90;;;11.45;;
26822;SDS011;14852;51.910;8.878;2024-01-10T10:15:57;21.25;;;12.57;;
26822;SDS011;14852;51.910;8.878;2024-01-10T10:18:28;22.10;;;13.63;;
26822;SDS011;14852;51.910;8.878;2024-01-10T10:21:11;21.70;;;11.88;;
26822;SDS011;14852;51.910;8.878;2024-01-10T10:23:39;22.95;;;10.43;;
26822;SDS011;14852;51.910;8.878;2024-01-10T10:26:22;22.05;;;11.73;;
26822;SDS011;14852;51.910;8.878;2024-01-10T10:28:49;19.35;;;10.75;;
26822;SDS011;14852;51.910;8.878;2024-01-10T10:31:17;21.85;;;11.77;;
26822;SDS011;14852;51.910;8.878;2024-01-10T10:33:44;21.52;;;12.48;;
26822;SDS011;14852;51.910;8.878;2024-01-10T10:36:10;25.08;;;13.43;;
26822;SDS011;14852;51.910;8.878;2024-01-10T10:38:39;20.10;;;11.70;;
26822;SDS011;14852;51.910;8.878;2024-01-10T10:41:06;20.10;;;11.45;;
26822;SDS011;14852;51.910;8.878;2024-01-10T10:43:36;21.90;;;13.77;;
26822;SDS011;14852;51.910;8.878;2024-01-10T10:46:10;22.40;;;12.52;;
26822;SDS011;14852;51.910;8.878;2024-01-10T10:48:39;25.50;;;14.27;;
26822;SDS011;14852;51.910;8.878;2024-01-10T10:51:09;21.00;;;13.95;;
26822;SDS011;14852;51.910;8.878;2024-01-10T10:53:48;22.20;;;13.57;;
26822;SDS011;14852;51.910;8.878;2024-01-10T10:56:15;24.17;;;13.75;;
26822;SDS011;14852;51.910;8.878;2024-01-10T10:58:42;19.35;;;12.88;;
26822;SDS011;14852;51.910;8.878;2024-01-10T11:01:10;20.75;;;11.93;;
26822;SDS011;14852;51.910;8.878;2024-01-10T11:03:38;20.25;;;12.52;;
26822;SDS011;14852;51.910;8.878;2024-01-10T11:06:06;21.80;;;13.60;;
26822;SDS011;14852;51.910;8.878;2024-01-10T11:08:34;22.20;;;14.13;;
26822;SDS011;14852;51.910;8.878;2024-01-10T11:11:18;24.63;;;14.07;;
26822;SDS011;14852;51.910;8.878;2024-01-10T11:23:42;21.42;;;11.98;;
26822;SDS011;14852;51.910;8.878;2024-01-10T11:26:13;22.02;;;14.13;;
26822;SDS011;14852;51.910;8.878;2024-01-10T11:28:40;20.85;;;14.02;;
26822;SDS011;14852;51.910;8.878;2024-01-10T11:31:07;19.55;;;12.80;;
26822;SDS011;14852;51.910;8.878;2024-01-10T11:33:34;18.92;;;14.27;;
26822;SDS011;14852;51.910;8.878;2024-01-10T11:36:12;20.35;;;13.73;;
26822;SDS011;14852;51.910;8.878;2024-01-10T11:38:50;19.77;;;12.75;;
26822;SDS011;14852;51.910;8.878;2024-01-10T11:41:31;21.08;;;14.05;;
26822;SDS011;14852;51.910;8.878;2024-01-10T11:46:40;24.20;;;15.60;;
26822;SDS011;14852;51.910;8.878;2024-01-10T11:49:13;20.20;;;13.35;;
26822;SDS011;14852;51.910;8.878;2024-01-10T11:51:42;19.65;;;13.95;;
26822;SDS011;14852;51.910;8.878;2024-01-10T11:57:22;21.90;;;13.35;;
26822;SDS011;14852;51.910;8.878;2024-01-10T11:59:53;21.55;;;13.23;;
26822;SDS011;14852;51.910;8.878;2024-01-10T12:02:23;23.08;;;14.93;;
26822;SDS011;14852;51.910;8.878;2024-01-10T12:04:51;19.25;;;13.15;;
26822;SDS011;14852;51.910;8.878;2024-01-10T12:07:18;19.42;;;13.27;;
26822;SDS011;14852;51.910;8.878;2024-01-10T12:09:44;16.15;;;11.60;;
26822;SDS011;14852;51.910;8.878;2024-01-10T12:12:14;21.88;;;14.77;;
26822;SDS011;14852;51.910;8.878;2024-01-10T12:14:41;22.17;;;15.32;;
26822;SDS011;14852;51.910;8.878;2024-01-10T12:17:11;20.45;;;13.95;;
26822;SDS011;14852;51.910;8.878;2024-01-10T12:19:37;26.23;;;13.90;;
26822;SDS011;14852;51.910;8.878;2024-01-10T12:22:04;21.08;;;14.02;;
26822;SDS011;14852;51.910;8.878;2024-01-10T12:24:54;23.63;;;13.38;;
26822;SDS011;14852;51.910;8.878;2024-01-10T12:27:31;22.65;;;12.80;;
26822;SDS011;14852;51.910;8.878;2024-01-10T12:30:03;19.33;;;13.23;;
26822;SDS011;14852;51.910;8.878;2024-01-10T12:32:38;21.13;;;13.68;;
26822;SDS011;14852;51.910;8.878;2024-01-10T12:35:25;20.10;;;11.60;;
26822;SDS011;14852;51.910;8.878;2024-01-10T12:38:10;20.70;;;12.25;;
26822;SDS011;14852;51.910;8.878;2024-01-10T12:41:10;23.38;;;13.20;;
26822;SDS011;14852;51.910;8.878;2024-01-10T12:44:51;22.08;;;12.85;;
26822;SDS011;14852;51.910;8.878;2024-01-10T12:49:10;18.30;;;12.35;;
26822;SDS011;14852;51.910;8.878;2024-01-10T12:52:16;25.85;;;12.77;;
26822;SDS011;14852;51.910;8.878;2024-01-10T13:00:13;16.83;;;11.63;;
26822;SDS011;14852;51.910;8.878;2024-01-10T13:03:47;24.80;;;13.82;;
26822;SDS011;14852;51.910;8.878;2024-01-10T13:07:07;20.23;;;12.70;;
26822;SDS011;14852;51.910;8.878;2024-01-10T13:11:09;19.52;;;11.93;;
26822;SDS011;14852;51.910;8.878;2024-01-10T13:15:02;22.35;;;11.75;;
26822;SDS011;14852;51.910;8.878;2024-01-10T13:17:29;22.65;;;13.18;;
26822;SDS011;14852;51.910;8.878;2024-01-10T13:19:55;20.60;;;11.65;;
26822;SDS011;14852;51.910;8.878;2024-01-10T13:22:23;16.98;;;12.20;;
26822;SDS011;14852;51.910;8.878;2024-01-10T13:24:49;21.70;;;12.05;;
26822;SDS011;14852;51.910;8.878;2024-01-10T13:27:14;19.92;;;11.13;;
26822;SDS011;14852;51.910;8.878;2024-01-10T13:29:40;22.73;;;12.48;;
26822;SDS011;14852;51.910;8.878;2024-01-10T13:32:06;19.67;;;12.73;;
26822;SDS011;14852;51.910;8.878;2024-01-10T13:34:32;15.48;;;10.50;;
26822;SDS011;14852;51.910;8.878;2024-01-10T13:36:58;21.58;;;12.70;;
26822;SDS011;14852;51.910;8.878;2024-01-10T13:39:24;20.05;;;13.00;;
26822;SDS011;14852;51.910;8.878;2024-01-10T13:41:50;21.90;;;11.57;;
26822;SDS011;14852;51.910;8.878;2024-01-10T13:44:16;21.95;;;13.13;;
26822;SDS011;14852;51.910;8.878;2024-01-10T13:46:41;18.48;;;11.77;;
26822;SDS011;14852;51.910;8.878;2024-01-10T13:49:07;23.58;;;13.48;;
26822;SDS011;14852;51.910;8.878;2024-01-10T13:51:33;19.58;;;11.50;;
26822;SDS011;14852;51.910;8.878;2024-01-10T13:53:59;18.58;;;11.55;;
26822;SDS011;14852;51.910;8.878;2024-01-10T13:56:24;18.83;;;10.35;;
26822;SDS011;14852;51.910;8.878;2024-01-10T13:58:52;18.40;;;12.13;;
26822;SDS011;14852;51.910;8.878;2024-01-10T14:01:18;20.10;;;12.20;;
26822;SDS011;14852;51.910;8.878;2024-01-10T14:03:44;17.05;;;11.77;;
26822;SDS011;14852;51.910;8.878;2024-01-10T14:06:10;20.17;;;10.93;;
26822;SDS011;14852;51.910;8.878;2024-01-10T14:08:35;21.92;;;13.05;;
26822;SDS011;14852;51.910;8.878;2024-01-10T14:11:02;17.00;;;10.73;;
26822;SDS011;14852;51.910;8.878;2024-01-10T14:13:29;21.17;;;11.95;;
26822;SDS011;14852;51.910;8.878;2024-01-10T14:15:55;22.63;;;13.88;;
26822;SDS011;14852;51.910;8.878;2024-01-10T14:18:20;22.00;;;11.68;;
26822;SDS011;14852;51.910;8.878;2024-01-10T14:20:46;19.20;;;12.85;;
26822;SDS011;14852;51.910;8.878;2024-01-10T14:23:12;18.38;;;11.38;;
26822;SDS011;14852;51.910;8.878;2024-01-10T14:25:38;17.35;;;10.80;;
26822;SDS011;14852;51.910;8.878;2024-01-10T14:28:03;21.08;;;13.02;;
26822;SDS011;14852;51.910;8.878;2024-01-10T14:30:29;22.48;;;12.73;;
26822;SDS011;14852;51.910;8.878;2024-01-10T14:32:57;21.40;;;13.20;;
26822;SDS011;14852;51.910;8.878;2024-01-10T14:35:24;19.70;;;12.73;;
26822;SDS011;14852;51.910;8.878;2024-01-10T14:37:50;19.58;;;12.23;;
26822;SDS011;14852;51.910;8.878;2024-01-10T14:40:15;28.90;;;17.85;;
26822;SDS011;14852;51.910;8.878;2024-01-10T14:42:41;22.30;;;14.45;;
26822;SDS011;14852;51.910;8.878;2024-01-10T14:45:07;21.38;;;13.93;;
26822;SDS011;14852;51.910;8.878;2024-01-10T14:47:33;24.13;;;13.98;;
26822;SDS011;14852;51.910;8.878;2024-01-10T14:50:00;19.27;;;12.40;;
26822;SDS011;14852;51.910;8.878;2024-01-10T14:52:26;22.20;;;12.48;;
26822;SDS011;14852;51.910;8.878;2024-01-10T14:54:52;25.48;;;15.77;;
26822;SDS011;14852;51.910;8.878;2024-01-10T14:57:19;22.10;;;13.52;;
26822;SDS011;14852;51.910;8.878;2024-01-10T14:59:45;26.58;;;15.48;;
26822;SDS011;14852;51.910;8.878;2024-01-10T15:02:11;22.33;;;15.00;;
26822;SDS011;14852;51.910;8.878;2024-01-10T15:04:37;22.48;;;15.57;;
26822;SDS011;14852;51.910;8.878;2024-01-10T15:07:04;29.20;;;16.13;;
26822;SDS011;14852;51.910;8.878;2024-01-10T15:09:30;28.55;;;15.15;;
26822;SDS011;14852;51.910;8.878;2024-01-10T15:11:57;24.80;;;16.73;;
26822;SDS011;14852;51.910;8.878;2024-01-10T15:14:22;23.90;;;14.85;;
26822;SDS011;14852;51.910;8.878;2024-01-10T15:16:48;25.45;;;14.63;;
26822;SDS011;14852;51.910;8.878;2024-01-10T15:19:14;26.73;;;16.17;;
26822;SDS011;14852;51.910;8.878;2024-01-10T15:21:40;23.65;;;15.32;;
26822;SDS011;14852;51.910;8.878;2024-01-10T15:24:06;23.48;;;15.45;;
26822;SDS011;14852;51.910;8.878;2024-01-10T15:26:32;23.30;;;14.90;;
26822;SDS011;14852;51.910;8.878;2024-01-10T15:28:57;27.58;;;15.73;;
26822;SDS011;14852;51.910;8.878;2024-01-10T15:31:24;22.73;;;16.00;;
26822;SDS011;14852;51.910;8.878;2024-01-10T15:33:51;25.13;;;16.73;;
26822;SDS011;14852;51.910;8.878;2024-01-10T15:36:17;26.88;;;15.88;;
26822;SDS011;14852;51.910;8.878;2024-01-10T15:38:42;27.45;;;14.68;;
26822;SDS011;14852;51.910;8.878;2024-01-10T15:41:08;24.75;;;15.00;;
26822;SDS011;14852;51.910;8.878;2024-01-10T15:43:36;29.48;;;14.38;;
26822;SDS011;14852;51.910;8.878;2024-01-10T15:46:02;22.85;;;14.52;;
26822;SDS011;14852;51.910;8.878;2024-01-10T15:48:28;24.60;;;15.40;;
26822;SDS011;14852;51.910;8.878;2024-01-10T15:50:55;29.90;;;15.70;;